Time;durP1;ratioP1;P1;durP2;ratioP2;P2;SDS_P1;SDS_P2;PMS_P1;PMS_P2;Temp;Humidity;BMP_temperature;BMP_pressure;BME280_temperature;BME280_humidity;BME280_pressure;Samples;Min_cycle;Max_cycle;Signal;HPM_P1;HPM_P2
2023/05/23 00:01:23;;;;;;;;;;;;;;;;;;2216642;58;2345;-23
2023/05/23 00:03:55;;;;;;;;;;;;;;;;;;2216377;59;1910;-23
2023/05/23 00:06:25;;;;;;;;;;;;;;;;;;2210895;63;2332;-23
2023/05/23 00:08:55;;;;;;;;;;;;;;;;;;2215629;58;3202;-23
2023/05/23 00:11:27;;;;;;;;;;;;;;;;;;2214140;59;2349;-23
2023/05/23 00:13:59;;;;;;;;;;;;;;;;;;2216706;66;2052;-23
2023/05/23 00:16:30;;;;;;;;;;;;;;;;;;2213785;66;3249;-23
2023/05/23 00:19:00;;;;;;;;;;;;;;;;;;2216194;59;2046;-23
2023/05/23 00:21:31;;;;;;;;;;;;;;;;;;2216880;66;2912;-23
2023/05/23 00:24:03;;;;;;;;;;;;;;;;;;2216489;59;1923;-23
2023/05/23 00:26:33;;;;;;;;;;;;;;;;;;2210995;66;1753;-23
2023/05/23 00:29:03;;;;;;;;;;;;;;;;;;2217084;66;2555;-23
2023/05/23 00:31:34;;;;;;;;;;;;;;;;;;2216962;66;1733;-23
2023/05/23 00:34:04;;;;;;;;;;;;;;;;;;2216162;66;3383;-23
2023/05/23 00:36:36;;;;;;;;;;;;;;;;;;2216147;58;2458;-23
2023/05/23 00:39:17;;;;;;;;;;;;;;;;;;2216700;58;2259;-23
2023/05/23 00:41:48;;;;;;;;;;;;;;;;;;2217150;59;2124;-23
2023/05/23 00:44:21;;;;;;;;;;;;;;;;;;2217415;58;2868;-23
2023/05/23 00:46:53;;;;;;;;;;;;;;;;;;2216589;58;2247;-23
2023/05/23 00:49:26;;;;;;;;;;;;;;;;;;2217605;58;2793;-23
2023/05/23 00:51:57;;;;;;;;;;;;;;;;;;2214408;59;2041;-23
2023/05/23 00:54:29;;;;;;;;;;;;;;;;;;2217800;58;2764;-23
2023/05/23 00:57:00;;;;;;;;;;;;;;;;;;2217266;66;2782;-23
2023/05/23 00:59:30;;;;;;;;;;;;;;;;;;2217073;59;3578;-23
2023/05/23 01:02:01;;;;;;;;;;;;;;;;;;2216862;58;3019;-23
2023/05/23 01:04:32;;;;;;;;;;;;;;;;;;2217480;66;3051;-23
2023/05/23 01:07:06;;;;;;;;;;;;;;;;;;2217612;66;2090;-23
2023/05/23 01:09:39;;;;;;;;;;;;;;;;;;2218191;66;2611;-23
2023/05/23 01:12:09;;;;;;;;;;;;;;;;;;2216286;66;3168;-23
2023/05/23 01:14:39;;;;;;;;;;;;;;;;;;2216919;66;1727;-23
2023/05/23 01:17:16;;;;;;;;;;;;;;;;;;2216981;66;2170;-23
2023/05/23 01:20:13;;;;;;;;;;;;;;;;;;2216849;66;2750;-23
2023/05/23 01:22:55;;;;;;;;;;;;;;;;;;2217163;66;2017;-23
2023/05/23 01:25:49;;;;;;;;;;;;;;;;;;2216872;59;1943;-23
2023/05/23 01:28:20;;;;;;;;;;;;;;;;;;2215749;58;2261;-23
2023/05/23 01:30:51;;;;;;;;;;;;;;;;;;2213315;66;2981;-23
2023/05/23 01:33:21;;;;;;;;;;;;;;;;;;2216173;66;2754;-23
2023/05/23 01:35:51;;;;;;;;;;;;;;;;;;2217520;58;2073;-23
2023/05/23 01:38:22;;;;;;;;;;;;;;;;;;2217100;58;2280;-23
2023/05/23 01:40:52;;;;;;;;;;;;;;;;;;2217346;66;2035;-23
2023/05/23 01:43:23;;;;;;;;;;;;;;;;;;2217937;66;2966;-23
2023/05/23 01:45:54;;;;;;;;;;;;;;;;;;2212124;66;2776;-23
2023/05/23 01:48:26;;;;;;;;;;;;;;;;;;2213928;59;2521;-23
2023/05/23 01:50:57;;;;;;;;;;;;;;;;;;2216580;58;2158;-23
2023/05/23 01:53:27;;;;;;;;;;;;;;;;;;2216855;58;2860;-23
2023/05/23 01:56:02;;;;;;;;;;;;;;;;;;2213256;59;2710;-23
2023/05/23 01:58:32;;;;;;;;;;;;;;;;;;2214124;59;2172;-23
2023/05/23 02:01:02;;;;;;;;;;;;;;;;;;2216553;58;3012;-23
2023/05/23 02:03:33;;;;;;;;;;;;;;;;;;2216272;66;3146;-24
2023/05/23 02:06:03;;;;;;;;;;;;;;;;;;2216669;66;2656;-23
2023/05/23 02:08:33;;;;;;;;;;;;;;;;;;2212623;66;2581;-23
2023/05/23 02:11:04;;;;;;;;;;;;;;;;;;2213682;66;2208;-23
2023/05/23 02:13:34;;;;;;;;;;;;;;;;;;2216719;66;1769;-23
2023/05/23 02:16:04;;;;;;;;;;;;;;;;;;2216787;66;2083;-23
2023/05/23 02:18:36;;;;;;;;;;;;;;;;;;2213461;66;2593;-23
2023/05/23 02:21:07;;;;;;;;;;;;;;;;;;2215963;58;2507;-23
2023/05/23 02:23:38;;;;;;;;;;;;;;;;;;2212644;66;2969;-23
2023/05/23 02:26:08;;;;;;;;;;;;;;;;;;2211676;66;3119;-23
2023/05/23 02:28:38;;;;;;;;;;;;;;;;;;2216551;59;3060;-23
2023/05/23 02:31:09;;;;;;;;;;;;;;;;;;2213764;66;2854;-23
2023/05/23 02:33:40;;;;;;;;;;;;;;;;;;2217539;66;2467;-23
2023/05/23 02:36:10;;;;;;;;;;;;;;;;;;2217239;58;2133;-23
2023/05/23 02:38:40;;;;;;;;;;;;;;;;;;2217532;58;2441;-23
2023/05/23 02:41:11;;;;;;;;;;;;;;;;;;2213909;66;2907;-23
2023/05/23 02:43:41;;;;;;;;;;;;;;;;;;2213300;59;2153;-23
2023/05/23 02:46:12;;;;;;;;;;;;;;;;;;2215710;59;1897;-23
2023/05/23 02:48:43;;;;;;;;;;;;;;;;;;2216020;58;2304;-23
2023/05/23 02:51:13;;;;;;;;;;;;;;;;;;2216757;58;1717;-23
2023/05/23 02:53:43;;;;;;;;;;;;;;;;;;2216435;59;2109;-23
2023/05/23 02:56:15;;;;;;;;;;;;;;;;;;2215990;66;1946;-23
2023/05/23 02:58:45;;;;;;;;;;;;;;;;;;2213830;59;2138;-23
2023/05/23 03:01:16;;;;;;;;;;;;;;;;;;2215822;58;2243;-23
2023/05/23 03:03:47;;;;;;;;;;;;;;;;;;2216205;66;3587;-23
2023/05/23 03:06:17;;;;;;;;;;;;;;;;;;2216625;59;1914;-23
2023/05/23 03:08:50;;;;;;;;;;;;;;;;;;2213662;66;3679;-23
2023/05/23 03:11:21;;;;;;;;;;;;;;;;;;2217106;66;2485;-23
2023/05/23 03:13:51;;;;;;;;;;;;;;;;;;2212973;66;1677;-23
2023/05/23 03:16:23;;;;;;;;;;;;;;;;;;2216539;66;2939;-23
2023/05/23 03:18:53;;;;;;;;;;;;;;;;;;2212908;66;1826;-23
2023/05/23 03:21:23;;;;;;;;;;;;;;;;;;2216149;66;2649;-23
2023/05/23 03:23:53;;;;;;;;;;;;;;;;;;2216200;66;1929;-23
2023/05/23 03:26:24;;;;;;;;;;;;;;;;;;2214525;66;3044;-23
2023/05/23 03:28:54;;;;;;;;;;;;;;;;;;2217187;66;1903;-23
2023/05/23 03:31:25;;;;;;;;;;;;;;;;;;2213523;66;2138;-23
2023/05/23 03:33:55;;;;;;;;;;;;;;;;;;2217752;66;2213;-23
2023/05/23 03:36:27;;;;;;;;;;;;;;;;;;2216973;66;2697;-23
2023/05/23 03:38:57;;;;;;;;;;;;;;;;;;2217004;58;2468;-23
2023/05/23 03:41:28;;;;;;;;;;;;;;;;;;2216469;66;2662;-23
2023/05/23 03:43:59;;;;;;;;;;;;;;;;;;2214170;59;2201;-23
2023/05/23 03:46:30;;;;;;;;;;;;;;;;;;2216520;59;2583;-23
2023/05/23 03:49:03;;;;;;;;;;;;;;;;;;2216541;66;3076;-23
2023/05/23 03:51:33;;;;;;;;;;;;;;;;;;2216130;58;2023;-23
2023/05/23 03:54:03;;;;;;;;;;;;;;;;;;2217099;58;1989;-23
2023/05/23 03:56:34;;;;;;;;;;;;;;;;;;2213239;59;2561;-23
2023/05/23 03:59:04;;;;;;;;;;;;;;;;;;2216973;58;2238;-23
2023/05/23 04:01:34;;;;;;;;;;;;;;;;;;2216647;58;1848;-23
2023/05/23 04:04:04;;;;;;;;;;;;;;;;;;2215904;59;2502;-23
2023/05/23 04:06:35;;;;;;;;;;;;;;;;;;2212741;66;2152;-23
2023/05/23 04:09:05;;;;;;;;;;;;;;;;;;2214207;66;2290;-23
2023/05/23 04:11:35;;;;;;;;;;;;;;;;;;2216310;66;2039;-23
2023/05/23 04:14:09;;;;;;;;;;;;;;;;;;2213853;66;1997;-23
2023/05/23 04:16:40;;;;;;;;;;;;;;;;;;2217045;66;2396;-23
2023/05/23 04:19:11;;;;;;;;;;;;;;;;;;2217392;66;2623;-23
2023/05/23 04:21:41;;;;;;;;;;;;;;;;;;2217508;66;2935;-23
2023/05/23 04:24:11;;;;;;;;;;;;;;;;;;2217252;59;1763;-23
2023/05/23 04:26:42;;;;;;;;;;;;;;;;;;2216717;66;3043;-23
2023/05/23 04:29:12;;;;;;;;;;;;;;;;;;2218337;66;2871;-23
2023/05/23 04:31:44;;;;;;;;;;;;;;;;;;2216870;66;3055;-23
2023/05/23 04:34:16;;;;;;;;;;;;;;;;;;2214197;66;2006;-23
2023/05/23 04:36:47;;;;;;;;;;;;;;;;;;2214479;59;2425;-24
2023/05/23 04:39:17;;;;;;;;;;;;;;;;;;2217459;58;2786;-23
2023/05/23 04:41:50;;;;;;;;;;;;;;;;;;2217033;58;2080;-23
2023/05/23 04:44:20;;;;;;;;;;;;;;;;;;2217034;58;2603;-23
2023/05/23 04:46:51;;;;;;;;;;;;;;;;;;2217177;66;2323;-23
2023/05/23 04:49:21;;;;;;;;;;;;;;;;;;2216089;58;3495;-24
2023/05/23 04:51:51;;;;;;;;;;;;;;;;;;2216863;58;1942;-23
2023/05/23 04:54:22;;;;;;;;;;;;;;;;;;2216919;58;2319;-23
2023/05/23 04:56:52;;;;;;;;;;;;;;;;;;2216340;66;2165;-23
2023/05/23 04:59:22;;;;;;;;;;;;;;;;;;2216052;59;2152;-23
2023/05/23 05:01:52;;;;;;;;;;;;;;;;;;2217374;58;2673;-23
2023/05/23 05:04:23;;;;;;;;;;;;;;;;;;2211385;59;2691;-23
2023/05/23 05:06:53;;;;;;;;;;;;;;;;;;2217512;66;2306;-23
2023/05/23 05:09:24;;;;;;;;;;;;;;;;;;2216308;66;2170;-23
2023/05/23 05:11:54;;;;;;;;;;;;;;;;;;2216639;66;1920;-23
2023/05/23 05:14:26;;;;;;;;;;;;;;;;;;2217600;66;2115;-23
2023/05/23 05:16:56;;;;;;;;;;;;;;;;;;2216392;66;2726;-23
2023/05/23 05:19:27;;;;;;;;;;;;;;;;;;2216298;66;2756;-23
2023/05/23 05:21:58;;;;;;;;;;;;;;;;;;2216553;66;2685;-23
2023/05/23 05:24:29;;;;;;;;;;;;;;;;;;2213504;66;2258;-23
2023/05/23 05:27:02;;;;;;;;;;;;;;;;;;2216292;66;1703;-23
2023/05/23 05:29:32;;;;;;;;;;;;;;;;;;2215984;59;2603;-23
2023/05/23 05:32:03;;;;;;;;;;;;;;;;;;2216703;66;2260;-23
2023/05/23 05:34:34;;;;;;;;;;;;;;;;;;2212440;59;2069;-23
2023/05/23 05:37:04;;;;;;;;;;;;;;;;;;2216814;58;2099;-23
2023/05/23 05:39:35;;;;;;;;;;;;;;;;;;2214043;58;2094;-23
2023/05/23 05:42:05;;;;;;;;;;;;;;;;;;2213533;66;2625;-23
2023/05/23 05:44:35;;;;;;;;;;;;;;;;;;2216585;58;2162;-23
2023/05/23 05:47:05;;;;;;;;;;;;;;;;;;2216635;59;3074;-23
2023/05/23 05:49:36;;;;;;;;;;;;;;;;;;2216131;58;2085;-23
2023/05/23 05:52:06;;;;;;;;;;;;;;;;;;2217173;58;2573;-23
2023/05/23 05:54:36;;;;;;;;;;;;;;;;;;2214775;59;2806;-23
2023/05/23 05:57:07;;;;;;;;;;;;;;;;;;2212077;53;2839;-20
2023/05/23 05:59:37;;;;;;;;;;;;;;;;;;2197346;59;2178;-21
2023/05/23 06:02:07;;;;;;;;;;;;;;;;;;2197167;59;2313;-21
2023/05/23 06:04:38;;;;;;;;;;;;;;;;;;2197495;66;3287;-21
2023/05/23 06:07:08;;;;;;;;;;;;;;;;;;2196132;59;3578;-21
2023/05/23 06:09:38;;;;;;;;;;;;;;;;;;2196127;59;2729;-21
2023/05/23 06:12:08;;;;;;;;;;;;;;;;;;2196342;66;1783;-21
2023/05/23 06:14:39;;;;;;;;;;;;;;;;;;2196345;59;2367;-21
2023/05/23 06:17:09;;;;;;;;;;;;;;;;;;2195625;66;3062;-21
2023/05/23 06:19:39;;;;;;;;;;;;;;;;;;2195661;66;3067;-21
2023/05/23 06:22:09;;;;;;;;;;;;;;;;;;2194493;66;1894;-21
2023/05/23 06:24:39;;;;;;;;;;;;;;;;;;2196479;59;2263;-22
2023/05/23 06:27:10;;;;;;;;;;;;;;;;;;2195189;66;2324;-22
2023/05/23 06:29:40;;;;;;;;;;;;;;;;;;2194275;67;2687;-22
2023/05/23 06:32:10;;;;;;;;;;;;;;;;;;2195397;66;2769;-22
2023/05/23 06:34:40;;;;;;;;;;;;;;;;;;2196436;59;2186;-22
2023/05/23 06:37:11;;;;;;;;;;;;;;;;;;2195494;59;2186;-22
2023/05/23 06:39:41;;;;;;;;;;;;;;;;;;2196704;59;2607;-22
2023/05/23 06:42:11;;;;;;;;;;;;;;;;;;2195476;66;2062;-22
2023/05/23 06:44:41;;;;;;;;;;;;;;;;;;2197656;59;3918;-22
2023/05/23 06:47:11;;;;;;;;;;;;;;;;;;2197126;59;2167;-22
2023/05/23 06:49:42;;;;;;;;;;;;;;;;;;2194853;59;2215;-22
2023/05/23 06:52:12;;;;;;;;;;;;;;;;;;2193370;59;2470;-22
2023/05/23 06:54:42;;;;;;;;;;;;;;;;;;2197307;59;2984;-22
2023/05/23 06:57:12;;;;;;;;;;;;;;;;;;2194463;59;3034;-22
2023/05/23 06:59:43;;;;;;;;;;;;;;;;;;2197330;59;2231;-22
2023/05/23 07:02:13;;;;;;;;;;;;;;;;;;2195447;59;1810;-22
2023/05/23 07:04:43;;;;;;;;;;;;;;;;;;2197284;67;2339;-22
2023/05/23 07:07:13;;;;;;;;;;;;;;;;;;2195469;66;2481;-22
2023/05/23 07:09:44;;;;;;;;;;;;;;;;;;2195188;59;2885;-22
2023/05/23 07:12:14;;;;;;;;;;;;;;;;;;2196614;59;1693;-22
2023/05/23 07:14:44;;;;;;;;;;;;;;;;;;2196433;67;2685;-22
2023/05/23 07:17:15;;;;;;;;;;;;;;;;;;2196831;66;2244;-22
2023/05/23 07:19:45;;;;;;;;;;;;;;;;;;2193467;67;2087;-22
2023/05/23 07:22:15;;;;;;;;;;;;;;;;;;2195156;66;2209;-21
2023/05/23 07:24:45;;;;;;;;;;;;;;;;;;2196980;67;1773;-21
2023/05/23 07:27:15;;;;;;;;;;;;;;;;;;2196247;66;3061;-21
2023/05/23 07:29:46;;;;;;;;;;;;;;;;;;2196957;67;2997;-21
2023/05/23 07:32:16;;;;;;;;;;;;;;;;;;2195562;66;2369;-21
2023/05/23 07:34:46;;;;;;;;;;;;;;;;;;2195814;67;2166;-22
2023/05/23 07:37:16;;;;;;;;;;;;;;;;;;2195005;59;2719;-21
2023/05/23 07:39:46;;;;;;;;;;;;;;;;;;2195356;59;3334;-21
2023/05/23 07:42:17;;;;;;;;;;;;;;;;;;2196361;59;1897;-21
2023/05/23 07:44:47;;;;;;;;;;;;;;;;;;2198001;59;2100;-21
2023/05/23 07:47:17;;;;;;;;;;;;;;;;;;2196575;59;2412;-21
2023/05/23 07:49:47;;;;;;;;;;;;;;;;;;2195334;59;2707;-21
2023/05/23 07:52:18;;;;;;;;;;;;;;;;;;2196332;59;1898;-21
2023/05/23 07:54:48;;;;;;;;;;;;;;;;;;2195108;59;2857;-21
2023/05/23 07:57:18;;;;;;;;;;;;;;;;;;2193952;59;3098;-21
2023/05/23 07:59:49;;;;;;;;;;;;;;;;;;2195835;59;2801;-21
2023/05/23 08:02:19;;;;;;;;;;;;;;;;;;2195989;59;2929;-21
2023/05/23 08:04:49;;;;;;;;;;;;;;;;;;2196424;66;2008;-21
2023/05/23 08:07:20;;;;;;;;;;;;;;;;;;2194968;66;2800;-21
2023/05/23 08:09:50;;;;;;;;;;;;;;;;;;2195626;67;2951;-21
2023/05/23 08:12:21;;;;;;;;;;;;;;;;;;2196336;66;2497;-21
2023/05/23 08:14:51;;;;;;;;;;;;;;;;;;2196953;60;1711;-21
2023/05/23 08:17:22;;;;;;;;;;;;;;;;;;2195725;67;3305;-21
2023/05/23 08:19:52;;;;;;;;;;;;;;;;;;2195798;66;1975;-22
2023/05/23 08:22:22;;;;;;;;;;;;;;;;;;2194847;67;2065;-21
2023/05/23 08:24:52;;;;;;;;;;;;;;;;;;2195969;66;2046;-22
2023/05/23 08:27:23;;;;;;;;;;;;;;;;;;2195532;59;3570;-21
2023/05/23 08:29:54;;;;;;;;;;;;;;;;;;2195364;66;2184;-21
2023/05/23 08:32:27;;;;;;;;;;;;;;;;;;2196014;67;2288;-21
2023/05/23 08:34:57;;;;;;;;;;;;;;;;;;2195761;59;3337;-21
2023/05/23 08:37:28;;;;;;;;;;;;;;;;;;2197369;59;2769;-21
2023/05/23 08:39:58;;;;;;;;;;;;;;;;;;2196262;59;2440;-21
2023/05/23 08:42:28;;;;;;;;;;;;;;;;;;2196729;59;2253;-21
2023/05/23 08:44:58;;;;;;;;;;;;;;;;;;2196219;59;3076;-22
2023/05/23 08:47:30;;;;;;;;;;;;;;;;;;2196511;59;3038;-21
2023/05/23 08:50:01;;;;;;;;;;;;;;;;;;2196157;59;2595;-21
2023/05/23 08:52:36;;;;;;;;;;;;;;;;;;2195699;66;2733;-21
2023/05/23 08:55:07;;;;;;;;;;;;;;;;;;2195953;59;2108;-22
2023/05/23 08:57:38;;;;;;;;;;;;;;;;;;2194738;59;3559;-21
2023/05/23 09:00:13;;;;;;;;;;;;;;;;;;2197048;66;2904;-21
2023/05/23 09:02:44;;;;;;;;;;;;;;;;;;2197541;59;2847;-21
2023/05/23 09:05:15;;;;;;;;;;;;;;;;;;2195690;66;3104;-21
2023/05/23 09:07:50;;;;;;;;;;;;;;;;;;2194558;67;3194;-21
2023/05/23 09:10:23;;;;;;;;;;;;;;;;;;2194998;66;3062;-21
2023/05/23 09:12:57;;;;;;;;;;;;;;;;;;2197687;66;2878;-21
2023/05/23 09:15:28;;;;;;;;;;;;;;;;;;2196460;66;1945;-22
2023/05/23 09:18:00;;;;;;;;;;;;;;;;;;2195699;59;3545;-21
2023/05/23 09:20:30;;;;;;;;;;;;;;;;;;2199206;59;2221;-21
2023/05/23 09:23:04;;;;;;;;;;;;;;;;;;2195719;59;3113;-21
2023/05/23 09:25:45;;;;;;;;;;;;;;;;;;2199818;66;3101;-21
2023/05/23 09:28:15;;;;;;;;;;;;;;;;;;2197552;59;2744;-21
2023/05/23 09:30:45;;;;;;;;;;;;;;;;;;2197796;66;2665;-21
2023/05/23 09:33:16;;;;;;;;;;;;;;;;;;2197761;66;3020;-21
2023/05/23 09:35:46;;;;;;;;;;;;;;;;;;2197164;66;3410;-22
2023/05/23 09:38:17;;;;;;;;;;;;;;;;;;2194464;59;2321;-21
2023/05/23 09:40:48;;;;;;;;;;;;;;;;;;2199017;59;2214;-22
2023/05/23 09:43:20;;;;;;;;;;;;;;;;;;2200037;59;2928;-22
2023/05/23 09:45:52;;;;;;;;;;;;;;;;;;2198447;66;2041;-21
2023/05/23 09:48:29;;;;;;;;;;;;;;;;;;2197244;66;2519;-22
2023/05/23 09:51:09;;;;;;;;;;;;;;;;;;2199519;59;2308;-22
2023/05/23 09:53:39;;;;;;;;;;;;;;;;;;2197944;66;3067;-22
2023/05/23 09:56:10;;;;;;;;;;;;;;;;;;2197093;59;2277;-22
2023/05/23 09:58:43;;;;;;;;;;;;;;;;;;2197278;59;2598;-22
2023/05/23 10:01:15;;;;;;;;;;;;;;;;;;2197977;59;1919;-22
2023/05/23 10:03:48;;;;;;;;;;;;;;;;;;2193311;66;2957;-22
2023/05/23 10:06:23;;;;;;;;;;;;;;;;;;2195953;66;3035;-22
2023/05/23 10:08:58;;;;;;;;;;;;;;;;;;2196918;60;3512;-22
2023/05/23 10:11:34;;;;;;;;;;;;;;;;;;2195161;59;3459;-22
2023/05/23 10:14:05;;;;;;;;;;;;;;;;;;2197092;66;2712;-22
2023/05/23 10:16:46;;;;;;;;;;;;;;;;;;2196517;66;2364;-22
2023/05/23 10:19:25;;;;;;;;;;;;;;;;;;2197170;59;2201;-22
2023/05/23 10:21:58;;;;;;;;;;;;;;;;;;2196419;59;3068;-22
2023/05/23 10:24:28;;;;;;;;;;;;;;;;;;2197407;66;1842;-22
2023/05/23 10:26:58;;;;;;;;;;;;;;;;;;2197094;66;2468;-22
2023/05/23 10:29:29;;;;;;;;;;;;;;;;;;2200743;66;2640;-22
2023/05/23 10:32:01;;;;;;;;;;;;;;;;;;2199199;66;2143;-22
2023/05/23 10:34:40;;;;;;;;;;;;;;;;;;2200046;66;2603;-22
2023/05/23 10:37:23;;;;;;;;;;;;;;;;;;2198892;59;2009;-22
2023/05/23 10:40:06;;;;;;;;;;;;;;;;;;2197190;59;2124;-21
2023/05/23 10:42:36;;;;;;;;;;;;;;;;;;2197282;59;2191;-22
2023/05/23 10:45:33;;;;;;;;;;;;;;;;;;2200465;59;3201;-22
2023/05/23 10:48:23;;;;;;;;;;;;;;;;;;2196481;59;2934;-22
2023/05/23 10:51:03;;;;;;;;;;;;;;;;;;2200071;59;3024;-20
2023/05/23 10:53:35;;;;;;;;;;;;;;;;;;2197172;66;2711;-20
2023/05/23 10:56:08;;;;;;;;;;;;;;;;;;2200743;59;3292;-20
2023/05/23 10:58:38;;;;;;;;;;;;;;;;;;2197674;59;2219;-21
2023/05/23 11:01:12;;;;;;;;;;;;;;;;;;2198413;59;2583;-20
2023/05/23 11:03:45;;;;;;;;;;;;;;;;;;2196649;66;1883;-20
2023/05/23 11:06:39;;;;;;;;;;;;;;;;;;2197612;66;2580;-20
2023/05/23 11:09:18;;;;;;;;;;;;;;;;;;2194916;66;2864;-20
2023/05/23 11:11:56;;;;;;;;;;;;;;;;;;2194512;60;2623;-20
2023/05/23 11:14:32;;;;;;;;;;;;;;;;;;2198704;59;2087;-19
2023/05/23 11:17:11;;;;;;;;;;;;;;;;;;2194110;59;2186;-20
2023/05/23 11:20:00;;;;;;;;;;;;;;;;;;2195862;59;1956;-20
2023/05/23 11:22:31;;;;;;;;;;;;;;;;;;2196778;59;2337;-20
2023/05/23 11:25:06;;;;;;;;;;;;;;;;;;2196397;66;2871;-20
2023/05/23 11:27:37;;;;;;;;;;;;;;;;;;2200324;66;3317;-21
2023/05/23 11:30:09;;;;;;;;;;;;;;;;;;2197358;66;2169;-20
2023/05/23 11:32:49;;;;;;;;;;;;;;;;;;2197863;59;1808;-20
2023/05/23 11:35:20;;;;;;;;;;;;;;;;;;2196672;59;2183;-20
2023/05/23 11:37:50;;;;;;;;;;;;;;;;;;2197216;59;2150;-20
2023/05/23 11:40:34;;;;;;;;;;;;;;;;;;2193243;59;2499;-21
2023/05/23 11:43:05;;;;;;;;;;;;;;;;;;2196205;59;2459;-22
2023/05/23 11:45:36;;;;;;;;;;;;;;;;;;2195349;59;1975;-22
2023/05/23 11:48:07;;;;;;;;;;;;;;;;;;2196076;59;2253;-22
2023/05/23 11:50:48;;;;;;;;;;;;;;;;;;2195662;59;3138;-22
2023/05/23 11:53:20;;;;;;;;;;;;;;;;;;2195076;59;2797;-25
2023/05/23 11:55:54;;;;;;;;;;;;;;;;;;2197489;59;2636;-24
2023/05/23 11:58:26;;;;;;;;;;;;;;;;;;2195729;59;3011;-24
2023/05/23 12:00:59;;;;;;;;;;;;;;;;;;2196336;59;2274;-23
2023/05/23 12:03:33;;;;;;;;;;;;;;;;;;2195310;59;1727;-23
2023/05/23 12:06:03;;;;;;;;;;;;;;;;;;2188831;60;2208;-23
2023/05/23 12:08:36;;;;;;;;;;;;;;;;;;2196914;66;2820;-23
2023/05/23 12:11:07;;;;;;;;;;;;;;;;;;2192018;59;2774;-23
2023/05/23 12:13:40;;;;;;;;;;;;;;;;;;2197125;66;2828;-23
2023/05/23 12:16:12;;;;;;;;;;;;;;;;;;2196855;59;2731;-23
2023/05/23 12:18:42;;;;;;;;;;;;;;;;;;2200305;66;1993;-23
2023/05/23 12:21:13;;;;;;;;;;;;;;;;;;2198406;66;2566;-23
2023/05/23 12:23:43;;;;;;;;;;;;;;;;;;2198641;66;3028;-23
2023/05/23 12:26:13;;;;;;;;;;;;;;;;;;2199657;66;2210;-23
2023/05/23 12:28:44;;;;;;;;;;;;;;;;;;2199392;59;2713;-23
2023/05/23 12:31:18;;;;;;;;;;;;;;;;;;2197309;59;1989;-23
2023/05/23 12:33:51;;;;;;;;;;;;;;;;;;2197964;59;2181;-23
2023/05/23 12:36:23;;;;;;;;;;;;;;;;;;2196679;59;2734;-23
2023/05/23 12:38:53;;;;;;;;;;;;;;;;;;2198362;59;2104;-23
2023/05/23 12:41:23;;;;;;;;;;;;;;;;;;2197507;66;3412;-23
2023/05/23 12:43:55;;;;;;;;;;;;;;;;;;2198143;66;2208;-23
2023/05/23 12:46:26;;;;;;;;;;;;;;;;;;2199962;59;2198;-22
2023/05/23 12:48:56;;;;;;;;;;;;;;;;;;2193971;58;3988;-23
2023/05/23 12:51:26;;;;;;;;;;;;;;;;;;2200270;59;2114;-23
2023/05/23 12:53:56;;;;;;;;;;;;;;;;;;2197068;59;3105;-22
2023/05/23 12:56:30;;;;;;;;;;;;;;;;;;2197375;59;2664;-22
2023/05/23 12:59:02;;;;;;;;;;;;;;;;;;2195364;59;3233;-24
2023/05/23 13:01:33;;;;;;;;;;;;;;;;;;2197353;59;3244;-22
2023/05/23 13:04:03;;;;;;;;;;;;;;;;;;2197777;66;3152;-22
2023/05/23 13:06:36;;;;;;;;;;;;;;;;;;2199040;66;2750;-22
2023/05/23 13:09:06;;;;;;;;;;;;;;;;;;2196986;59;2659;-22
2023/05/23 13:11:37;;;;;;;;;;;;;;;;;;2196899;59;2113;-22
2023/05/23 13:14:07;;;;;;;;;;;;;;;;;;2197184;66;3207;-22
2023/05/23 13:16:40;;;;;;;;;;;;;;;;;;2196334;59;2435;-22
2023/05/23 13:19:10;;;;;;;;;;;;;;;;;;2197510;66;2770;-22
2023/05/23 13:21:43;;;;;;;;;;;;;;;;;;2198679;66;2049;-22
2023/05/23 13:24:14;;;;;;;;;;;;;;;;;;2196473;66;3148;-22
2023/05/23 13:26:44;;;;;;;;;;;;;;;;;;2196626;66;2332;-22
2023/05/23 13:29:17;;;;;;;;;;;;;;;;;;2196371;66;3174;-22
2023/05/23 13:31:47;;;;;;;;;;;;;;;;;;2197095;59;2903;-22
2023/05/23 13:34:17;;;;;;;;;;;;;;;;;;2196439;67;2941;-22
2023/05/23 13:36:48;;;;;;;;;;;;;;;;;;2197417;59;2884;-22
2023/05/23 13:39:21;;;;;;;;;;;;;;;;;;2196750;59;2859;-21
2023/05/23 13:41:51;;;;;;;;;;;;;;;;;;2196043;59;2101;-22
2023/05/23 13:44:21;;;;;;;;;;;;;;;;;;2197907;66;2774;-22
2023/05/23 13:46:52;;;;;;;;;;;;;;;;;;2197321;59;2709;-22
2023/05/23 13:49:22;;;;;;;;;;;;;;;;;;2196968;59;3215;-22
2023/05/23 13:51:52;;;;;;;;;;;;;;;;;;2197126;67;2882;-24
2023/05/23 13:54:22;;;;;;;;;;;;;;;;;;2198858;66;2949;-24
2023/05/23 13:56:53;;;;;;;;;;;;;;;;;;2198500;67;3229;-24
2023/05/23 13:59:25;;;;;;;;;;;;;;;;;;2196441;67;3431;-24
2023/05/23 14:01:55;;;;;;;;;;;;;;;;;;2196562;59;3412;-23
2023/05/23 14:04:25;;;;;;;;;;;;;;;;;;2196847;59;2888;-23
2023/05/23 14:06:55;;;;;;;;;;;;;;;;;;2197235;66;2621;-23
2023/05/23 14:09:26;;;;;;;;;;;;;;;;;;2197240;66;2688;-23
2023/05/23 14:11:56;;;;;;;;;;;;;;;;;;2196714;59;2954;-23
2023/05/23 14:14:26;;;;;;;;;;;;;;;;;;2196442;66;2766;-23
2023/05/23 14:16:57;;;;;;;;;;;;;;;;;;2196152;66;3205;-23
2023/05/23 14:19:27;;;;;;;;;;;;;;;;;;2195993;66;3238;-23
2023/05/23 14:21:57;;;;;;;;;;;;;;;;;;2196285;59;3155;-23
2023/05/23 14:24:31;;;;;;;;;;;;;;;;;;2197782;58;2711;-23
2023/05/23 14:27:01;;;;;;;;;;;;;;;;;;2196724;66;3150;-23
2023/05/23 14:29:31;;;;;;;;;;;;;;;;;;2195375;67;2839;-23
2023/05/23 14:32:02;;;;;;;;;;;;;;;;;;2196575;66;2704;-23
2023/05/23 14:34:33;;;;;;;;;;;;;;;;;;2196146;66;3624;-23
2023/05/23 14:37:03;;;;;;;;;;;;;;;;;;2196013;59;3402;-22
2023/05/23 14:39:34;;;;;;;;;;;;;;;;;;2196120;59;2882;-23
2023/05/23 14:42:04;;;;;;;;;;;;;;;;;;2196205;66;3306;-22
2023/05/23 14:44:35;;;;;;;;;;;;;;;;;;2196483;59;2891;-23
2023/05/23 14:47:05;;;;;;;;;;;;;;;;;;2197665;67;3600;-24
2023/05/23 14:49:35;;;;;;;;;;;;;;;;;;2195100;59;2528;-24
2023/05/23 14:52:05;;;;;;;;;;;;;;;;;;2195142;58;3669;-24
2023/05/23 14:54:36;;;;;;;;;;;;;;;;;;2196361;66;2887;-24
2023/05/23 14:57:08;;;;;;;;;;;;;;;;;;2196079;59;3338;-24
2023/05/23 14:59:38;;;;;;;;;;;;;;;;;;2196911;59;3275;-24
2023/05/23 15:02:08;;;;;;;;;;;;;;;;;;2196535;59;3336;-24
2023/05/23 15:04:38;;;;;;;;;;;;;;;;;;2190722;59;3310;-24
2023/05/23 15:07:08;;;;;;;;;;;;;;;;;;2195805;66;3386;-24
2023/05/23 15:09:39;;;;;;;;;;;;;;;;;;2195767;59;2810;-24
2023/05/23 15:12:10;;;;;;;;;;;;;;;;;;2195052;66;3526;-23
2023/05/23 15:14:42;;;;;;;;;;;;;;;;;;2197024;66;3023;-23
2023/05/23 15:17:18;;;;;;;;;;;;;;;;;;2196174;66;3547;-23
2023/05/23 15:19:48;;;;;;;;;;;;;;;;;;2196282;67;2650;-23
2023/05/23 15:22:18;;;;;;;;;;;;;;;;;;2195061;66;3042;-23
2023/05/23 15:24:49;;;;;;;;;;;;;;;;;;2194009;59;2806;-23
2023/05/23 15:27:21;;;;;;;;;;;;;;;;;;2194060;59;2921;-23
2023/05/23 15:29:51;;;;;;;;;;;;;;;;;;2198888;59;2808;-23
2023/05/23 15:32:21;;;;;;;;;;;;;;;;;;2198850;66;3075;-23
2023/05/23 15:34:54;;;;;;;;;;;;;;;;;;2197816;66;2139;-23
2023/05/23 15:37:27;;;;;;;;;;;;;;;;;;2195252;59;2347;-23
2023/05/23 15:39:57;;;;;;;;;;;;;;;;;;2197743;59;2870;-23
2023/05/23 15:42:28;;;;;;;;;;;;;;;;;;2197763;59;3333;-23
2023/05/23 15:44:58;;;;;;;;;;;;;;;;;;2197287;59;2833;-23
2023/05/23 15:47:28;;;;;;;;;;;;;;;;;;2193614;59;3652;-23
2023/05/23 15:49:58;;;;;;;;;;;;;;;;;;2198057;66;3038;-23
2023/05/23 15:52:29;;;;;;;;;;;;;;;;;;2196976;59;3148;-23
2023/05/23 15:55:03;;;;;;;;;;;;;;;;;;2195485;59;2977;-23
2023/05/23 15:57:33;;;;;;;;;;;;;;;;;;2195979;59;3022;-23
2023/05/23 16:00:04;;;;;;;;;;;;;;;;;;2196649;59;2808;-23
2023/05/23 16:02:34;;;;;;;;;;;;;;;;;;2196110;59;3731;-22
2023/05/23 16:05:04;;;;;;;;;;;;;;;;;;2196946;59;3690;-23
2023/05/23 16:07:35;;;;;;;;;;;;;;;;;;2196416;59;3028;-23
2023/05/23 16:10:05;;;;;;;;;;;;;;;;;;2197772;59;3130;-22
2023/05/23 16:12:35;;;;;;;;;;;;;;;;;;2196717;59;3281;-22
2023/05/23 16:15:06;;;;;;;;;;;;;;;;;;2197533;59;2734;-22
2023/05/23 16:17:36;;;;;;;;;;;;;;;;;;2196388;59;3228;-22
2023/05/23 16:20:06;;;;;;;;;;;;;;;;;;2196475;59;3902;-22
2023/05/23 16:22:37;;;;;;;;;;;;;;;;;;2196593;59;2887;-22
2023/05/23 16:25:09;;;;;;;;;;;;;;;;;;2199207;59;3449;-22
2023/05/23 16:27:39;;;;;;;;;;;;;;;;;;2198191;66;2756;-22
2023/05/23 16:30:09;;;;;;;;;;;;;;;;;;2198497;66;3149;-22
2023/05/23 16:32:40;;;;;;;;;;;;;;;;;;2197568;66;3287;-22
2023/05/23 16:35:10;;;;;;;;;;;;;;;;;;2191535;59;3562;-22
2023/05/23 16:37:40;;;;;;;;;;;;;;;;;;2197403;59;2766;-22
2023/05/23 16:40:10;;;;;;;;;;;;;;;;;;2195037;66;3016;-22
2023/05/23 16:42:41;;;;;;;;;;;;;;;;;;2197435;59;2400;-22
2023/05/23 16:45:11;;;;;;;;;;;;;;;;;;2196125;59;2803;-22
2023/05/23 16:47:41;;;;;;;;;;;;;;;;;;2193805;59;3201;-22
2023/05/23 16:50:11;;;;;;;;;;;;;;;;;;2195798;59;3135;-22
2023/05/23 16:52:42;;;;;;;;;;;;;;;;;;2196441;59;3130;-22
2023/05/23 16:55:12;;;;;;;;;;;;;;;;;;2196340;59;3110;-22
2023/05/23 16:57:42;;;;;;;;;;;;;;;;;;2195886;59;3094;-22
2023/05/23 17:00:13;;;;;;;;;;;;;;;;;;2195767;59;3027;-22
2023/05/23 17:02:43;;;;;;;;;;;;;;;;;;2195760;59;3252;-22
2023/05/23 17:05:13;;;;;;;;;;;;;;;;;;2195726;59;3877;-22
2023/05/23 17:07:44;;;;;;;;;;;;;;;;;;2196894;59;2722;-22
2023/05/23 17:10:14;;;;;;;;;;;;;;;;;;2197300;66;3173;-22
2023/05/23 17:12:44;;;;;;;;;;;;;;;;;;2195725;60;3223;-22
2023/05/23 17:15:15;;;;;;;;;;;;;;;;;;2196669;67;2782;-22
2023/05/23 17:17:46;;;;;;;;;;;;;;;;;;2196636;66;3158;-22
2023/05/23 17:20:16;;;;;;;;;;;;;;;;;;2197104;66;3123;-22
2023/05/23 17:22:52;;;;;;;;;;;;;;;;;;2198864;66;3039;-22
2023/05/23 17:25:22;;;;;;;;;;;;;;;;;;2192429;66;3263;-22
2023/05/23 17:27:53;;;;;;;;;;;;;;;;;;2197379;67;2683;-22
2023/05/23 17:30:24;;;;;;;;;;;;;;;;;;2197357;59;3144;-22
2023/05/23 17:32:54;;;;;;;;;;;;;;;;;;2198275;66;2818;-22